ANA406 RJSK-RJTT
Flight info
| Callsign | ANA406 |
|---|---|
| Flight time | 1h 11m |
| Altitude | 34000 |
| Route | YTE Y32 RUBIS Y10 GODIN |
| Aircraft | A321/M-SDE3FGHIRWY/LB1 |
Departure
| Time | 2026-04-17 03:47 |
|---|---|
| Airport | Akita Airport (RJSK) |
Arrival
| Time | 2026-04-17 04:58 |
|---|---|
| Airport | Tokyo Haneda International Airport (RJTT) |
| Time | Latitude | Longitude | Altitude | Speed | Heading |
|---|---|---|---|---|---|
| 2026-04-17 03:30 | 39.61249 | 140.21924 | 312 ft | 0 kts | 186° |
| 2026-04-17 03:40 | 39.61267 | 140.21927 | 313 ft | 4 kts | 188° |
| 2026-04-17 03:40 | 39.61294 | 140.21932 | 313 ft | 4 kts | 189° |
| 2026-04-17 03:40 | 39.61321 | 140.21939 | 312 ft | 4 kts | 192° |
| 2026-04-17 03:40 | 39.61347 | 140.21947 | 313 ft | 4 kts | 197° |
| 2026-04-17 03:41 | 39.61371 | 140.21959 | 310 ft | 4 kts | 213° |
| 2026-04-17 03:41 | 39.61386 | 140.21980 | 307 ft | 3 kts | 271° |
| 2026-04-17 03:41 | 39.61387 | 140.21984 | 309 ft | 0 kts | 277° |
| 2026-04-17 03:43 | 39.61387 | 140.21975 | 308 ft | 5 kts | 277° |
| 2026-04-17 03:43 | 39.61396 | 140.21881 | 310 ft | 16 kts | 277° |
| 2026-04-17 03:43 | 39.61413 | 140.21719 | 308 ft | 18 kts | 277° |
| 2026-04-17 03:44 | 39.61424 | 140.21559 | 308 ft | 17 kts | 276° |
| 2026-04-17 03:44 | 39.61437 | 140.21410 | 309 ft | 16 kts | 276° |
| 2026-04-17 03:44 | 39.61449 | 140.21277 | 310 ft | 14 kts | 276° |
| 2026-04-17 03:44 | 39.61462 | 140.21129 | 310 ft | 19 kts | 276° |
| 2026-04-17 03:45 | 39.61480 | 140.20943 | 311 ft | 23 kts | 276° |
| 2026-04-17 03:45 | 39.61499 | 140.20728 | 310 ft | 24 kts | 276° |
| 2026-04-17 03:45 | 39.61516 | 140.20532 | 308 ft | 15 kts | 276° |
| 2026-04-17 03:45 | 39.61561 | 140.20429 | 309 ft | 14 kts | 338° |
| 2026-04-17 03:46 | 39.61642 | 140.20429 | 309 ft | 10 kts | 9° |
| 2026-04-17 03:46 | 39.61683 | 140.20502 | 310 ft | 17 kts | 84° |
| 2026-04-17 03:46 | 39.61642 | 140.20988 | 313 ft | 89 kts | 96° |
| 2026-04-17 03:46 | 39.61545 | 140.22042 | 312 ft | 143 kts | 98° |
| 2026-04-17 03:47 | 39.61427 | 140.23373 | 774 ft | 149 kts | 98° |
| 2026-04-17 03:47 | 39.61230 | 140.24675 | 1351 ft | 149 kts | 116° |
| 2026-04-17 03:47 | 39.60770 | 140.25347 | 1623 ft | 156 kts | 150° |
| 2026-04-17 03:47 | 39.59725 | 140.25636 | 2184 ft | 154 kts | 178° |
| 2026-04-17 03:48 | 39.58599 | 140.25695 | 2428 ft | 171 kts | 173° |
| 2026-04-17 03:48 | 39.57362 | 140.25902 | 2559 ft | 189 kts | 172° |
| 2026-04-17 03:48 | 39.55965 | 140.26170 | 2772 ft | 216 kts | 173° |
| 2026-04-17 03:48 | 39.54395 | 140.26473 | 3173 ft | 240 kts | 172° |
| 2026-04-17 03:49 | 39.52699 | 140.26798 | 3907 ft | 250 kts | 173° |
| 2026-04-17 03:49 | 39.50962 | 140.27125 | 4823 ft | 254 kts | 173° |
| 2026-04-17 03:49 | 39.49194 | 140.27451 | 5733 ft | 258 kts | 174° |
| 2026-04-17 03:49 | 39.47401 | 140.27777 | 6642 ft | 263 kts | 174° |
| 2026-04-17 03:50 | 39.45570 | 140.28106 | 7611 ft | 268 kts | 174° |
| 2026-04-17 03:50 | 39.43707 | 140.28444 | 8437 ft | 273 kts | 175° |
| 2026-04-17 03:50 | 39.41814 | 140.28789 | 9255 ft | 277 kts | 175° |
| 2026-04-17 03:50 | 39.39889 | 140.29141 | 10109 ft | 282 kts | 175° |
| 2026-04-17 03:51 | 39.37883 | 140.29501 | 10523 ft | 302 kts | 175° |
| 2026-04-17 03:51 | 39.35717 | 140.29884 | 10771 ft | 325 kts | 175° |
| 2026-04-17 03:51 | 39.33433 | 140.30289 | 11298 ft | 336 kts | 176° |
| 2026-04-17 03:51 | 39.31099 | 140.30709 | 11996 ft | 342 kts | 176° |
| 2026-04-17 03:52 | 39.28732 | 140.31142 | 12715 ft | 346 kts | 176° |
| 2026-04-17 03:52 | 39.26325 | 140.31586 | 13432 ft | 352 kts | 177° |
| 2026-04-17 03:52 | 39.23885 | 140.32033 | 14127 ft | 356 kts | 177° |
| 2026-04-17 03:52 | 39.21419 | 140.32480 | 14795 ft | 360 kts | 177° |
| 2026-04-17 03:53 | 39.18959 | 140.32925 | 15476 ft | 363 kts | 178° |
| 2026-04-17 03:53 | 39.16451 | 140.33377 | 16162 ft | 366 kts | 178° |
| 2026-04-17 03:53 | 39.13887 | 140.33835 | 16837 ft | 369 kts | 177° |
| 2026-04-17 03:53 | 39.11369 | 140.34287 | 17499 ft | 372 kts | 178° |
| 2026-04-17 03:54 | 39.08798 | 140.34727 | 18143 ft | 373 kts | 180° |
| 2026-04-17 03:54 | 39.06205 | 140.34822 | 18713 ft | 373 kts | 185° |
| 2026-04-17 03:54 | 39.03599 | 140.34855 | 19243 ft | 375 kts | 185° |
| 2026-04-17 03:54 | 39.00981 | 140.34893 | 19835 ft | 376 kts | 184° |
| 2026-04-17 03:55 | 38.98360 | 140.34931 | 20389 ft | 378 kts | 185° |
| 2026-04-17 03:55 | 38.95717 | 140.34968 | 20929 ft | 381 kts | 185° |
| 2026-04-17 03:55 | 38.93056 | 140.35010 | 21486 ft | 383 kts | 185° |
| 2026-04-17 03:55 | 38.90380 | 140.35050 | 21929 ft | 388 kts | 185° |
| 2026-04-17 03:56 | 38.87668 | 140.35085 | 22423 ft | 391 kts | 185° |
| 2026-04-17 03:56 | 38.84934 | 140.35121 | 22952 ft | 394 kts | 185° |
| 2026-04-17 03:56 | 38.82180 | 140.35160 | 23480 ft | 397 kts | 185° |
| 2026-04-17 03:56 | 38.79417 | 140.35200 | 23948 ft | 400 kts | 185° |
| 2026-04-17 03:57 | 38.76621 | 140.35241 | 24345 ft | 403 kts | 185° |
| 2026-04-17 03:57 | 38.73804 | 140.35281 | 24753 ft | 406 kts | 185° |
| 2026-04-17 03:57 | 38.70970 | 140.35319 | 25106 ft | 409 kts | 185° |
| 2026-04-17 03:57 | 38.68106 | 140.35357 | 25462 ft | 413 kts | 186° |
| 2026-04-17 03:58 | 38.65219 | 140.35398 | 25857 ft | 417 kts | 186° |
| 2026-04-17 03:58 | 38.62306 | 140.35442 | 26231 ft | 420 kts | 186° |
| 2026-04-17 03:58 | 38.59377 | 140.35490 | 26602 ft | 423 kts | 186° |
| 2026-04-17 03:58 | 38.56421 | 140.35536 | 26964 ft | 426 kts | 186° |
| 2026-04-17 03:59 | 38.53455 | 140.35582 | 27402 ft | 426 kts | 186° |
| 2026-04-17 03:59 | 38.50520 | 140.35625 | 27749 ft | 430 kts | 186° |
| 2026-04-17 03:59 | 38.47518 | 140.35665 | 28099 ft | 432 kts | 186° |
| 2026-04-17 03:59 | 38.44499 | 140.35707 | 28441 ft | 436 kts | 186° |
| 2026-04-17 04:00 | 38.41457 | 140.35759 | 28770 ft | 440 kts | 184° |
| 2026-04-17 04:00 | 38.38382 | 140.36217 | 29098 ft | 452 kts | 175° |
| 2026-04-17 04:00 | 38.35319 | 140.37316 | 29393 ft | 462 kts | 167° |
| 2026-04-17 04:00 | 38.32270 | 140.38669 | 29658 ft | 466 kts | 167° |
| 2026-04-17 04:01 | 38.29200 | 140.40021 | 30013 ft | 468 kts | 168° |
| 2026-04-17 04:01 | 38.26120 | 140.41369 | 30337 ft | 469 kts | 168° |
| 2026-04-17 04:01 | 38.23023 | 140.42715 | 30592 ft | 472 kts | 168° |
| 2026-04-17 04:01 | 38.19902 | 140.44067 | 30847 ft | 475 kts | 169° |
| 2026-04-17 04:02 | 38.16761 | 140.45420 | 31130 ft | 477 kts | 168° |
| 2026-04-17 04:02 | 38.13615 | 140.46773 | 31482 ft | 477 kts | 168° |
| 2026-04-17 04:02 | 38.10470 | 140.48128 | 31844 ft | 478 kts | 168° |
| 2026-04-17 04:02 | 38.07320 | 140.49493 | 32222 ft | 478 kts | 169° |
| 2026-04-17 04:03 | 38.04179 | 140.50858 | 32608 ft | 478 kts | 169° |
| 2026-04-17 04:03 | 38.01035 | 140.52226 | 32973 ft | 477 kts | 169° |
| 2026-04-17 04:03 | 37.97895 | 140.53587 | 33387 ft | 477 kts | 169° |
| 2026-04-17 04:03 | 37.94757 | 140.54940 | 33770 ft | 477 kts | 169° |
| 2026-04-17 04:04 | 37.91611 | 140.56296 | 34114 ft | 478 kts | 170° |
| 2026-04-17 04:04 | 37.85366 | 140.58987 | 34219 ft | 469 kts | 170° |
| 2026-04-17 04:05 | 37.79208 | 140.61580 | 34222 ft | 461 kts | 174° |
| 2026-04-17 04:05 | 37.76097 | 140.62340 | 34214 ft | 450 kts | 183° |
| 2026-04-17 04:05 | 37.73011 | 140.62512 | 34215 ft | 439 kts | 192° |
| 2026-04-17 04:06 | 37.67147 | 140.61353 | 34222 ft | 426 kts | 202° |
| 2026-04-17 04:06 | 37.61372 | 140.59668 | 34208 ft | 426 kts | 202° |
| 2026-04-17 04:07 | 37.55584 | 140.58014 | 34208 ft | 427 kts | 202° |
| 2026-04-17 04:07 | 37.49796 | 140.56367 | 34206 ft | 426 kts | 202° |
| 2026-04-17 04:08 | 37.44012 | 140.54706 | 34197 ft | 426 kts | 202° |
| 2026-04-17 04:08 | 37.38165 | 140.53022 | 34213 ft | 436 kts | 202° |
| 2026-04-17 04:09 | 37.32232 | 140.51328 | 34215 ft | 438 kts | 202° |
| 2026-04-17 04:09 | 37.29263 | 140.50486 | 33666 ft | 436 kts | 202° |
| 2026-04-17 04:09 | 37.26288 | 140.49639 | 31983 ft | 443 kts | 201° |
| 2026-04-17 04:09 | 37.23259 | 140.48769 | 30526 ft | 446 kts | 200° |
| 2026-04-17 04:10 | 37.20241 | 140.47912 | 29597 ft | 442 kts | 200° |
| 2026-04-17 04:10 | 37.17271 | 140.47076 | 29077 ft | 435 kts | 200° |
| 2026-04-17 04:10 | 37.14329 | 140.46247 | 28533 ft | 429 kts | 200° |
| 2026-04-17 04:10 | 37.11447 | 140.45438 | 28066 ft | 421 kts | 200° |
| 2026-04-17 04:11 | 37.08605 | 140.44637 | 27560 ft | 416 kts | 200° |
| 2026-04-17 04:11 | 37.05802 | 140.43844 | 27052 ft | 410 kts | 199° |
| 2026-04-17 04:11 | 37.03034 | 140.43063 | 26547 ft | 405 kts | 199° |
| 2026-04-17 04:11 | 37.00304 | 140.42290 | 26082 ft | 400 kts | 199° |
| 2026-04-17 04:12 | 36.97613 | 140.41525 | 25636 ft | 394 kts | 199° |
| 2026-04-17 04:12 | 36.94958 | 140.40774 | 25196 ft | 389 kts | 199° |
| 2026-04-17 04:12 | 36.92333 | 140.40032 | 24777 ft | 383 kts | 198° |
| 2026-04-17 04:12 | 36.89754 | 140.39304 | 24367 ft | 378 kts | 198° |
| 2026-04-17 04:13 | 36.87203 | 140.38587 | 23961 ft | 373 kts | 198° |
| 2026-04-17 04:13 | 36.84686 | 140.37882 | 23526 ft | 367 kts | 198° |
| 2026-04-17 04:13 | 36.82222 | 140.37193 | 23152 ft | 360 kts | 198° |
| 2026-04-17 04:13 | 36.79801 | 140.36516 | 22780 ft | 353 kts | 198° |
| 2026-04-17 04:14 | 36.77426 | 140.35850 | 22409 ft | 347 kts | 198° |
| 2026-04-17 04:14 | 36.75090 | 140.35192 | 22061 ft | 342 kts | 198° |
| 2026-04-17 04:14 | 36.72798 | 140.34592 | 21699 ft | 341 kts | 195° |
| 2026-04-17 04:14 | 36.70464 | 140.34081 | 21329 ft | 340 kts | 194° |
| 2026-04-17 04:15 | 36.68125 | 140.33622 | 20971 ft | 339 kts | 193° |
| 2026-04-17 04:15 | 36.65800 | 140.33184 | 20600 ft | 338 kts | 193° |
| 2026-04-17 04:15 | 36.63478 | 140.32746 | 20231 ft | 337 kts | 193° |
| 2026-04-17 04:15 | 36.61166 | 140.32303 | 19849 ft | 335 kts | 193° |
| 2026-04-17 04:16 | 36.58875 | 140.31858 | 19477 ft | 333 kts | 193° |
| 2026-04-17 04:16 | 36.56589 | 140.31407 | 19097 ft | 332 kts | 193° |
| 2026-04-17 04:16 | 36.54315 | 140.30951 | 18716 ft | 331 kts | 193° |
| 2026-04-17 04:16 | 36.52050 | 140.30496 | 18326 ft | 329 kts | 193° |
| 2026-04-17 04:17 | 36.49793 | 140.30045 | 17943 ft | 328 kts | 192° |
| 2026-04-17 04:17 | 36.47546 | 140.29598 | 17573 ft | 326 kts | 192° |
| 2026-04-17 04:17 | 36.45310 | 140.29152 | 17200 ft | 325 kts | 192° |
| 2026-04-17 04:17 | 36.43083 | 140.28709 | 16846 ft | 323 kts | 192° |
| 2026-04-17 04:18 | 36.40871 | 140.28265 | 16489 ft | 322 kts | 192° |
| 2026-04-17 04:18 | 36.38666 | 140.27822 | 16128 ft | 320 kts | 192° |
| 2026-04-17 04:18 | 36.36469 | 140.27383 | 15771 ft | 319 kts | 192° |
| 2026-04-17 04:18 | 36.34286 | 140.26948 | 15420 ft | 317 kts | 192° |
| 2026-04-17 04:19 | 36.32110 | 140.26513 | 15064 ft | 316 kts | 192° |
| 2026-04-17 04:19 | 36.29946 | 140.26080 | 14708 ft | 314 kts | 191° |
| 2026-04-17 04:19 | 36.27819 | 140.25656 | 14358 ft | 313 kts | 191° |
| 2026-04-17 04:19 | 36.25671 | 140.25229 | 13992 ft | 312 kts | 191° |
| 2026-04-17 04:20 | 36.23536 | 140.24802 | 13558 ft | 311 kts | 191° |
| 2026-04-17 04:20 | 36.21385 | 140.24374 | 13017 ft | 313 kts | 191° |
| 2026-04-17 04:20 | 36.19227 | 140.23944 | 12776 ft | 321 kts | 191° |
| 2026-04-17 04:20 | 36.16991 | 140.23499 | 12555 ft | 328 kts | 191° |
| 2026-04-17 04:21 | 36.14733 | 140.23051 | 12316 ft | 329 kts | 191° |
| 2026-04-17 04:21 | 36.12476 | 140.22602 | 12083 ft | 328 kts | 190° |
| 2026-04-17 04:21 | 36.10224 | 140.22154 | 11857 ft | 327 kts | 190° |
| 2026-04-17 04:21 | 36.07982 | 140.21707 | 11619 ft | 326 kts | 191° |
| 2026-04-17 04:22 | 36.05748 | 140.21263 | 11386 ft | 325 kts | 191° |
| 2026-04-17 04:22 | 36.03524 | 140.20822 | 11160 ft | 323 kts | 191° |
| 2026-04-17 04:22 | 36.01293 | 140.20524 | 10931 ft | 323 kts | 182° |
| 2026-04-17 04:22 | 35.99038 | 140.20496 | 10726 ft | 324 kts | 182° |
| 2026-04-17 04:23 | 35.96789 | 140.20463 | 10529 ft | 323 kts | 181° |
| 2026-04-17 04:23 | 35.94564 | 140.20425 | 10342 ft | 313 kts | 181° |
| 2026-04-17 04:23 | 35.92443 | 140.20389 | 10163 ft | 297 kts | 181° |
| 2026-04-17 04:23 | 35.90397 | 140.20355 | 9770 ft | 292 kts | 181° |
| 2026-04-17 04:24 | 35.88389 | 140.20320 | 9634 ft | 288 kts | 181° |
| 2026-04-17 04:24 | 35.86392 | 140.20286 | 9506 ft | 287 kts | 181° |
| 2026-04-17 04:24 | 35.84404 | 140.20251 | 9373 ft | 286 kts | 181° |
| 2026-04-17 04:24 | 35.82438 | 140.20214 | 9246 ft | 285 kts | 181° |
| 2026-04-17 04:25 | 35.80459 | 140.20178 | 9117 ft | 284 kts | 181° |
| 2026-04-17 04:25 | 35.78492 | 140.20144 | 8989 ft | 282 kts | 180° |
| 2026-04-17 04:25 | 35.76533 | 140.20164 | 8863 ft | 282 kts | 178° |
| 2026-04-17 04:25 | 35.74574 | 140.20251 | 8812 ft | 282 kts | 177° |
| 2026-04-17 04:26 | 35.72619 | 140.20360 | 8671 ft | 281 kts | 177° |
| 2026-04-17 04:26 | 35.70669 | 140.20469 | 8542 ft | 280 kts | 177° |
| 2026-04-17 04:26 | 35.68737 | 140.20575 | 8356 ft | 272 kts | 176° |
| 2026-04-17 04:26 | 35.66893 | 140.20671 | 8269 ft | 259 kts | 177° |
| 2026-04-17 04:27 | 35.65133 | 140.20758 | 8168 ft | 248 kts | 176° |
| 2026-04-17 04:27 | 35.63448 | 140.20839 | 8055 ft | 237 kts | 176° |
| 2026-04-17 04:27 | 35.61833 | 140.20905 | 7952 ft | 227 kts | 177° |
| 2026-04-17 04:27 | 35.60272 | 140.20927 | 7829 ft | 222 kts | 178° |
| 2026-04-17 04:28 | 35.58727 | 140.20933 | 7725 ft | 222 kts | 177° |
| 2026-04-17 04:28 | 35.57188 | 140.20940 | 7616 ft | 221 kts | 177° |
| 2026-04-17 04:28 | 35.55653 | 140.20948 | 7509 ft | 220 kts | 178° |
| 2026-04-17 04:28 | 35.54124 | 140.20953 | 7398 ft | 220 kts | 178° |
| 2026-04-17 04:29 | 35.52590 | 140.20960 | 7290 ft | 220 kts | 178° |
| 2026-04-17 04:29 | 35.51059 | 140.20969 | 7178 ft | 220 kts | 177° |
| 2026-04-17 04:29 | 35.49538 | 140.20848 | 7066 ft | 220 kts | 189° |
| 2026-04-17 04:29 | 35.48076 | 140.20274 | 6962 ft | 222 kts | 201° |
| 2026-04-17 04:30 | 35.46664 | 140.19502 | 6853 ft | 222 kts | 201° |
| 2026-04-17 04:30 | 35.45273 | 140.18751 | 6744 ft | 221 kts | 201° |
| 2026-04-17 04:30 | 35.43866 | 140.17996 | 6631 ft | 221 kts | 200° |
| 2026-04-17 04:30 | 35.42458 | 140.17243 | 6517 ft | 221 kts | 200° |
| 2026-04-17 04:31 | 35.41048 | 140.16490 | 6403 ft | 221 kts | 200° |
| 2026-04-17 04:31 | 35.39642 | 140.15739 | 6291 ft | 220 kts | 201° |
| 2026-04-17 04:31 | 35.38237 | 140.14989 | 6185 ft | 220 kts | 200° |
| 2026-04-17 04:31 | 35.36829 | 140.14238 | 6072 ft | 220 kts | 201° |
| 2026-04-17 04:32 | 35.35426 | 140.13488 | 5971 ft | 220 kts | 201° |
| 2026-04-17 04:32 | 35.34018 | 140.12736 | 5852 ft | 220 kts | 200° |
| 2026-04-17 04:32 | 35.32641 | 140.11999 | 5766 ft | 210 kts | 200° |
| 2026-04-17 04:32 | 35.31337 | 140.11300 | 5642 ft | 201 kts | 200° |
| 2026-04-17 04:33 | 35.30122 | 140.10467 | 5535 ft | 201 kts | 213° |
| 2026-04-17 04:33 | 35.29104 | 140.09277 | 5437 ft | 205 kts | 229° |
| 2026-04-17 04:33 | 35.28332 | 140.07802 | 5334 ft | 206 kts | 238° |
| 2026-04-17 04:33 | 35.27626 | 140.06276 | 5220 ft | 207 kts | 242° |
| 2026-04-17 04:34 | 35.27134 | 140.02852 | 4997 ft | 207 kts | 278° |
| 2026-04-17 04:34 | 35.27506 | 140.01163 | 4902 ft | 205 kts | 296° |
| 2026-04-17 04:34 | 35.28200 | 139.99652 | 4779 ft | 204 kts | 307° |
| 2026-04-17 04:35 | 35.29113 | 139.98348 | 4676 ft | 200 kts | 323° |
| 2026-04-17 04:35 | 35.30229 | 139.97353 | 4578 ft | 198 kts | 331° |
| 2026-04-17 04:35 | 35.31404 | 139.96480 | 4478 ft | 197 kts | 333° |
| 2026-04-17 04:35 | 35.32585 | 139.95639 | 4388 ft | 195 kts | 333° |
| 2026-04-17 04:36 | 35.33763 | 139.94807 | 4304 ft | 195 kts | 334° |
| 2026-04-17 04:36 | 35.34939 | 139.93977 | 4178 ft | 195 kts | 332° |
| 2026-04-17 04:36 | 35.36116 | 139.93147 | 4086 ft | 195 kts | 333° |
| 2026-04-17 04:36 | 35.37290 | 139.92318 | 3874 ft | 194 kts | 333° |
| 2026-04-17 04:37 | 35.38458 | 139.91493 | 3628 ft | 193 kts | 333° |
| 2026-04-17 04:37 | 35.39619 | 139.90674 | 3382 ft | 192 kts | 333° |
| 2026-04-17 04:37 | 35.40766 | 139.89863 | 3114 ft | 189 kts | 333° |
| 2026-04-17 04:37 | 35.41897 | 139.89063 | 2859 ft | 186 kts | 333° |
| 2026-04-17 04:38 | 35.43009 | 139.88277 | 2612 ft | 182 kts | 333° |
| 2026-04-17 04:38 | 35.44086 | 139.87515 | 2366 ft | 175 kts | 333° |
| 2026-04-17 04:38 | 35.45114 | 139.86787 | 2134 ft | 166 kts | 333° |
| 2026-04-17 04:38 | 35.46075 | 139.86107 | 2014 ft | 155 kts | 333° |
| 2026-04-17 04:39 | 35.46994 | 139.85458 | 1910 ft | 154 kts | 334° |
| 2026-04-17 04:39 | 35.47915 | 139.84811 | 1555 ft | 152 kts | 334° |
| 2026-04-17 04:39 | 35.48828 | 139.84167 | 1265 ft | 151 kts | 334° |
| 2026-04-17 04:39 | 35.49735 | 139.83523 | 1040 ft | 150 kts | 333° |
| 2026-04-17 04:40 | 35.50653 | 139.82881 | 904 ft | 154 kts | 334° |
| 2026-04-17 04:40 | 35.51577 | 139.82212 | 762 ft | 154 kts | 332° |
| 2026-04-17 04:40 | 35.52489 | 139.81542 | 599 ft | 152 kts | 333° |
| 2026-04-17 04:40 | 35.53417 | 139.80888 | 394 ft | 155 kts | 334° |
| 2026-04-17 04:41 | 35.54347 | 139.80234 | 106 ft | 153 kts | 334° |
| 2026-04-17 04:41 | 35.54955 | 139.79815 | 69 ft | 149 kts | 333° |
| 2026-04-17 04:41 | 35.55909 | 139.79132 | 270 ft | 173 kts | 334° |
| 2026-04-17 04:41 | 35.57026 | 139.78379 | 724 ft | 192 kts | 335° |
| 2026-04-17 04:42 | 35.58268 | 139.77559 | 1119 ft | 213 kts | 334° |
| 2026-04-17 04:42 | 35.59623 | 139.76650 | 1524 ft | 226 kts | 334° |
| 2026-04-17 04:42 | 35.61104 | 139.75965 | 1978 ft | 238 kts | 351° |
| 2026-04-17 04:42 | 35.62795 | 139.75718 | 2256 ft | 253 kts | 7° |
| 2026-04-17 04:43 | 35.64574 | 139.76195 | 2597 ft | 268 kts | 20° |
| 2026-04-17 04:43 | 35.66321 | 139.76930 | 2926 ft | 258 kts | 21° |
| 2026-04-17 04:43 | 35.67903 | 139.77770 | 3241 ft | 238 kts | 38° |
| 2026-04-17 04:43 | 35.68903 | 139.79246 | 3558 ft | 217 kts | 70° |
| 2026-04-17 04:44 | 35.69036 | 139.80987 | 3866 ft | 201 kts | 104° |
| 2026-04-17 04:44 | 35.68342 | 139.82430 | 3971 ft | 198 kts | 135° |
| 2026-04-17 04:44 | 35.67256 | 139.83476 | 3986 ft | 200 kts | 147° |
| 2026-04-17 04:44 | 35.65991 | 139.84216 | 3987 ft | 203 kts | 156° |
| 2026-04-17 04:45 | 35.64628 | 139.84668 | 3987 ft | 205 kts | 173° |
| 2026-04-17 04:45 | 35.63194 | 139.84738 | 3987 ft | 207 kts | 177° |
| 2026-04-17 04:45 | 35.61697 | 139.84755 | 3995 ft | 230 kts | 178° |
| 2026-04-17 04:45 | 35.60122 | 139.84749 | 3977 ft | 218 kts | 178° |
| 2026-04-17 04:46 | 35.58682 | 139.84939 | 3972 ft | 199 kts | 165° |
| 2026-04-17 04:46 | 35.57394 | 139.85325 | 3940 ft | 184 kts | 162° |
| 2026-04-17 04:46 | 35.56152 | 139.85732 | 3588 ft | 189 kts | 161° |
| 2026-04-17 04:46 | 35.54775 | 139.86077 | 3613 ft | 211 kts | 169° |
| 2026-04-17 04:47 | 35.53286 | 139.86475 | 3862 ft | 224 kts | 162° |
| 2026-04-17 04:47 | 35.51871 | 139.87110 | 3937 ft | 211 kts | 155° |
| 2026-04-17 04:47 | 35.50553 | 139.87798 | 3965 ft | 202 kts | 154° |
| 2026-04-17 04:47 | 35.49224 | 139.88311 | 3968 ft | 208 kts | 177° |
| 2026-04-17 04:48 | 35.47838 | 139.87809 | 4472 ft | 214 kts | 215° |
| 2026-04-17 04:48 | 35.46895 | 139.86432 | 4796 ft | 216 kts | 245° |
| 2026-04-17 04:48 | 35.46681 | 139.84658 | 4404 ft | 211 kts | 283° |
| 2026-04-17 04:48 | 35.47348 | 139.83106 | 3867 ft | 210 kts | 321° |
| 2026-04-17 04:49 | 35.48535 | 139.81961 | 3043 ft | 224 kts | 330° |
| 2026-04-17 04:49 | 35.49908 | 139.81083 | 2344 ft | 222 kts | 339° |
| 2026-04-17 04:49 | 35.51301 | 139.80247 | 1621 ft | 225 kts | 332° |
| 2026-04-17 04:49 | 35.52669 | 139.79292 | 753 ft | 223 kts | 332° |
| 2026-04-17 04:50 | 35.53951 | 139.78357 | 207 ft | 204 kts | 332° |
| 2026-04-17 04:50 | 35.55093 | 139.77547 | 100 ft | 173 kts | 332° |
| 2026-04-17 04:50 | 35.56247 | 139.76724 | 348 ft | 212 kts | 333° |
| 2026-04-17 04:50 | 35.57680 | 139.76048 | 1155 ft | 227 kts | 357° |
| 2026-04-17 04:51 | 35.59224 | 139.76366 | 2516 ft | 222 kts | 27° |
| 2026-04-17 04:51 | 35.60330 | 139.77529 | 3819 ft | 205 kts | 57° |
| 2026-04-17 04:51 | 35.61095 | 139.79098 | 3955 ft | 216 kts | 65° |
| 2026-04-17 04:51 | 35.61439 | 139.80852 | 3963 ft | 212 kts | 90° |
| 2026-04-17 04:52 | 35.61129 | 139.82605 | 4117 ft | 213 kts | 115° |
| 2026-04-17 04:52 | 35.60219 | 139.84057 | 4228 ft | 219 kts | 138° |
| 2026-04-17 04:52 | 35.58956 | 139.85087 | 4172 ft | 217 kts | 145° |
| 2026-04-17 04:52 | 35.57659 | 139.86043 | 4071 ft | 218 kts | 150° |
| 2026-04-17 04:53 | 35.56312 | 139.86844 | 3880 ft | 211 kts | 153° |
| 2026-04-17 04:53 | 35.55021 | 139.87591 | 3749 ft | 199 kts | 150° |
| 2026-04-17 04:53 | 35.53855 | 139.88389 | 3595 ft | 186 kts | 147° |
| 2026-04-17 04:55 | 35.46942 | 139.90650 | 1377 ft | 160 kts | 267° |
| 2026-04-17 04:55 | 35.47176 | 139.89339 | 1438 ft | 159 kts | 291° |
| 2026-04-17 04:55 | 35.47559 | 139.88072 | 1392 ft | 158 kts | 294° |
| 2026-04-17 04:56 | 35.47972 | 139.86825 | 1343 ft | 157 kts | 295° |
| 2026-04-17 04:56 | 35.48445 | 139.85626 | 1304 ft | 155 kts | 301° |
| 2026-04-17 04:56 | 35.49045 | 139.84536 | 1277 ft | 155 kts | 312° |
| 2026-04-17 04:56 | 35.49780 | 139.83577 | 1149 ft | 153 kts | 319° |
| 2026-04-17 04:57 | 35.50630 | 139.82810 | 938 ft | 152 kts | 330° |
| 2026-04-17 04:57 | 35.51550 | 139.82160 | 780 ft | 153 kts | 335° |
| 2026-04-17 04:57 | 35.52482 | 139.81544 | 502 ft | 151 kts | 334° |
| 2026-04-17 04:57 | 35.53405 | 139.80913 | 293 ft | 153 kts | 335° |
| 2026-04-17 04:58 | 35.54325 | 139.80268 | 93 ft | 151 kts | 333° |
| 2026-04-17 04:58 | 35.55244 | 139.79615 | 38 ft | 145 kts | 329° |
| 2026-04-17 04:58 | 35.55969 | 139.79098 | 24 ft | 81 kts | 330° |
| 2026-04-17 04:58 | 35.56176 | 139.78941 | 24 ft | 6 kts | 275° |
| 2026-04-17 04:59 | 35.56148 | 139.78803 | 23 ft | 26 kts | 242° |
| 2026-04-17 04:59 | 35.56078 | 139.78681 | 23 ft | 10 kts | 217° |
| 2026-04-17 04:59 | 35.56012 | 139.78687 | 24 ft | 10 kts | 158° |
| 2026-04-17 04:59 | 35.55950 | 139.78724 | 24 ft | 10 kts | 149° |
| 2026-04-17 05:00 | 35.55889 | 139.78770 | 25 ft | 10 kts | 150° |
| 2026-04-17 05:00 | 35.55826 | 139.78813 | 24 ft | 11 kts | 150° |
| 2026-04-17 05:00 | 35.55760 | 139.78859 | 25 ft | 11 kts | 154° |
| 2026-04-17 05:00 | 35.55695 | 139.78837 | 25 ft | 10 kts | 226° |
| 2026-04-17 05:01 | 35.55657 | 139.78773 | 24 ft | 6 kts | 214° |
| 2026-04-17 05:01 | 35.55614 | 139.78779 | 24 ft | 6 kts | 161° |
| 2026-04-17 05:01 | 35.55588 | 139.78794 | 25 ft | 0 kts | 152° |
| 2026-04-17 05:01 | 35.55584 | 139.78797 | 24 ft | 0 kts | 150° |